Time;durP1;ratioP1;P1;durP2;ratioP2;P2;SDS_P1;SDS_P2;PMS_P1;PMS_P2;Temp;Humidity;BMP_temperature;BMP_pressure;BME280_temperature;BME280_humidity;BME280_pressure;Samples;Min_cycle;Max_cycle;Signal;HPM_P1;HPM_P2
2022/03/21 00:02:12;;;;;;;5.47;4.90;;;10.00;83.40;;;;;;5060330;28;20481;-47
2022/03/21 00:04:40;;;;;;;4.87;4.13;;;10.00;83.40;;;;;;5055122;28;20482;-47
2022/03/21 00:07:08;;;;;;;5.10;4.70;;;10.00;83.40;;;;;;5059374;28;20445;-47
2022/03/21 00:09:38;;;;;;;6.97;6.27;;;10.00;83.40;;;;;;5070710;28;20460;-46
2022/03/21 00:12:07;;;;;;;6.00;5.40;;;10.00;83.40;;;;;;5060937;28;20507;-47
2022/03/21 00:14:35;;;;;;;5.40;4.90;;;10.00;83.50;;;;;;5058447;28;20823;-47
2022/03/21 00:17:03;;;;;;;5.67;5.07;;;10.00;83.40;;;;;;5064121;28;20842;-47
2022/03/21 00:19:32;;;;;;;7.10;5.97;;;10.00;83.40;;;;;;5063772;28;20500;-47
2022/03/21 00:22:01;;;;;;;6.07;5.47;;;10.00;83.40;;;;;;5057897;28;20927;-48
2022/03/21 00:24:29;;;;;;;5.67;5.10;;;10.00;83.40;;;;;;5069727;28;20470;-50
2022/03/21 00:26:59;;;;;;;5.50;4.70;;;10.00;83.40;;;;;;5070882;28;20423;-46
2022/03/21 00:29:38;;;;;;;5.53;5.03;;;10.00;83.40;;;;;;5049560;28;20887;-49
2022/03/21 00:32:08;;;;;;;6.03;5.53;;;10.00;83.40;;;;;;5059330;28;20506;-49
2022/03/21 00:34:39;;;;;;;5.40;4.90;;;10.00;83.40;;;;;;5040944;28;20508;-47
2022/03/21 00:37:07;;;;;;;4.93;4.43;;;10.00;83.40;;;;;;5069987;28;20997;-46
2022/03/21 00:39:38;;;;;;;5.90;5.20;;;10.00;83.40;;;;;;5055282;28;20811;-48
2022/03/21 00:42:10;;;;;;;4.60;4.17;;;10.00;83.40;;;;;;5058338;28;20521;-48
2022/03/21 00:44:39;;;;;;;5.90;5.30;;;10.00;83.40;;;;;;5070021;28;20454;-48
2022/03/21 00:47:07;;;;;;;5.83;5.23;;;10.00;83.40;;;;;;5069797;28;20450;-46
2022/03/21 00:49:35;;;;;;;7.33;6.63;;;10.00;83.40;;;;;;5062124;28;20478;-47
2022/03/21 00:52:04;;;;;;;5.13;4.70;;;10.00;83.90;;;;;;5057594;28;20941;-47
2022/03/21 00:54:32;;;;;;;5.13;4.63;;;10.00;83.40;;;;;;5070042;28;20493;-49
2022/03/21 00:57:00;;;;;;;5.10;4.57;;;10.00;83.40;;;;;;5067056;28;20443;-48
2022/03/21 00:59:30;;;;;;;5.27;4.77;;;10.00;83.60;;;;;;5054742;28;20999;-48
2022/03/21 01:01:58;;;;;;;4.87;4.47;;;10.00;83.80;;;;;;5069275;28;20483;-49
2022/03/21 01:04:26;;;;;;;4.97;4.40;;;10.00;83.40;;;;;;5062153;28;20989;-46
2022/03/21 01:06:54;;;;;;;5.00;4.50;;;10.00;83.40;;;;;;5055968;28;20473;-48
2022/03/21 01:09:22;;;;;;;6.60;5.53;;;10.00;83.60;;;;;;5043979;28;20524;-49
2022/03/21 01:11:51;;;;;;;5.07;4.57;;;10.00;84.00;;;;;;5050425;28;20522;-48
2022/03/21 01:14:19;;;;;;;5.60;4.97;;;10.00;84.20;;;;;;5054764;28;20477;-47
2022/03/21 01:16:50;;;;;;;5.37;4.23;;;10.00;83.90;;;;;;5069554;28;20488;-47
2022/03/21 01:19:18;;;;;;;5.70;5.20;;;10.00;83.50;;;;;;5066062;28;20483;-46
2022/03/21 01:21:46;;;;;;;5.40;4.90;;;10.00;83.60;;;;;;5037178;28;20516;-47
2022/03/21 01:24:14;;;;;;;5.53;5.00;;;10.00;83.40;;;;;;5069058;28;20535;-46
2022/03/21 01:26:42;;;;;;;5.30;4.70;;;10.00;83.40;;;;;;5062976;28;20438;-47
2022/03/21 01:29:10;;;;;;;4.87;4.47;;;10.00;83.60;;;;;;5067536;28;20746;-47
2022/03/21 01:31:39;;;;;;;4.70;4.30;;;10.00;84.30;;;;;;5054969;28;20832;-47
2022/03/21 01:34:08;;;;;;;4.70;4.30;;;10.00;84.40;;;;;;5056894;28;20556;-47
2022/03/21 01:36:40;;;;;;;5.50;5.00;;;10.00;84.00;;;;;;5069677;28;20445;-47
2022/03/21 01:39:08;;;;;;;6.50;4.97;;;10.00;84.10;;;;;;5069119;28;20470;-47
2022/03/21 01:41:36;;;;;;;5.73;4.43;;;10.00;84.40;;;;;;5070086;28;20844;-49
2022/03/21 01:44:06;;;;;;;8.17;4.97;;;10.00;84.20;;;;;;5068817;28;20473;-48
2022/03/21 01:46:36;;;;;;;4.70;4.27;;;10.00;84.10;;;;;;5054811;28;20491;-47
2022/03/21 01:49:08;;;;;;;4.97;4.40;;;10.00;84.20;;;;;;5062434;28;21001;-48
2022/03/21 01:51:38;;;;;;;5.13;4.50;;;10.00;84.10;;;;;;5053268;28;20520;-48
2022/03/21 01:56:52;;;;;;;4.83;4.33;;;10.00;84.20;;;;;;5061002;28;20438;-47
2022/03/21 01:59:21;;;;;;;4.80;4.37;;;9.90;85.30;;;;;;5063380;28;20500;-49
2022/03/21 02:01:50;;;;;;;5.40;4.90;;;10.00;84.60;;;;;;5057992;28;20447;-47
2022/03/21 02:04:21;;;;;;;5.00;4.20;;;10.00;84.70;;;;;;5048455;28;20466;-49
2022/03/21 02:06:50;;;;;;;5.10;4.60;;;9.90;85.30;;;;;;5054702;28;20605;-48
2022/03/21 02:09:19;;;;;;;6.70;5.37;;;10.00;84.40;;;;;;5057743;28;20549;-45
2022/03/21 02:11:47;;;;;;;5.00;4.57;;;10.00;84.50;;;;;;5050290;28;20530;-47
2022/03/21 02:14:39;;;;;;;6.40;5.33;;;9.90;85.30;;;;;;5060897;28;20484;-47
2022/03/21 02:17:28;;;;;;;5.60;5.10;;;9.90;85.30;;;;;;5063337;28;20442;-48
2022/03/21 02:20:18;;;;;;;5.37;4.80;;;9.90;85.50;;;;;;5061297;28;20430;-48
2022/03/21 02:23:12;;;;;;;6.23;5.70;;;9.90;85.40;;;;;;5057035;28;20466;-49
2022/03/21 02:26:01;;;;;;;6.40;5.13;;;9.90;85.50;;;;;;5068106;28;20455;-46
2022/03/21 02:28:32;;;;;;;5.10;4.60;;;9.90;85.50;;;;;;5069040;28;20472;-47
2022/03/21 02:31:00;;;;;;;4.33;3.93;;;9.90;85.40;;;;;;5068605;28;20438;-47
2022/03/21 02:33:30;;;;;;;6.73;6.03;;;9.90;85.50;;;;;;5068182;28;20474;-46
2022/03/21 02:36:00;;;;;;;4.70;4.30;;;9.90;85.50;;;;;;5053255;28;20486;-48
2022/03/21 02:38:29;;;;;;;4.67;4.27;;;9.90;85.60;;;;;;5066252;28;20490;-49
2022/03/21 02:40:57;;;;;;;5.57;4.90;;;9.90;85.40;;;;;;5053759;28;20966;-46
2022/03/21 02:43:27;;;;;;;6.00;5.20;;;9.90;85.40;;;;;;5052628;28;20494;-47
2022/03/21 02:46:04;;;;;;;5.00;4.17;;;9.90;85.40;;;;;;5054439;28;20438;-48
2022/03/21 02:48:33;;;;;;;7.10;4.60;;;9.90;85.50;;;;;;5054621;28;20561;-47
2022/03/21 02:51:03;;;;;;;5.50;5.00;;;9.90;85.30;;;;;;5073124;28;20434;-47
2022/03/21 02:53:34;;;;;;;5.90;5.23;;;9.90;85.40;;;;;;5071778;28;20450;-47
2022/03/21 02:56:02;;;;;;;5.37;4.30;;;9.90;85.50;;;;;;5055558;28;20840;-47
2022/03/21 02:58:32;;;;;;;4.97;4.57;;;9.90;85.50;;;;;;5071289;28;20993;-49
2022/03/21 03:01:07;;;;;;;6.53;4.60;;;9.90;85.60;;;;;;5063319;28;20504;-47
2022/03/21 03:03:35;;;;;;;5.13;4.53;;;9.90;85.50;;;;;;5053285;28;20876;-49
2022/03/21 03:06:04;;;;;;;5.60;4.40;;;9.90;85.70;;;;;;5052886;28;20418;-49
2022/03/21 03:08:34;;;;;;;5.23;4.77;;;9.90;85.60;;;;;;5065336;28;20489;-48
2022/03/21 03:11:03;;;;;;;5.73;5.17;;;9.90;85.70;;;;;;5052786;28;20528;-47
2022/03/21 03:13:33;;;;;;;7.07;4.93;;;9.90;85.60;;;;;;5052353;28;20561;-47
2022/03/21 03:16:01;;;;;;;5.30;4.80;;;9.90;85.60;;;;;;5055394;28;20961;-48
2022/03/21 03:18:29;;;;;;;5.87;4.90;;;9.90;85.60;;;;;;5070981;28;20491;-50
2022/03/21 03:20:58;;;;;;;5.40;4.90;;;9.90;85.50;;;;;;5054572;28;20473;-47
2022/03/21 03:23:30;;;;;;;5.57;4.73;;;9.90;85.60;;;;;;5058910;28;21016;-47
2022/03/21 03:26:00;;;;;;;6.63;5.67;;;9.90;85.50;;;;;;5066936;28;20434;-48
2022/03/21 03:28:29;;;;;;;5.50;4.50;;;9.90;85.60;;;;;;5051586;28;20471;-48
2022/03/21 03:31:16;;;;;;;5.83;4.50;;;9.90;85.60;;;;;;5063164;28;20445;-49
2022/03/21 03:33:45;;;;;;;6.33;5.83;;;9.90;85.60;;;;;;5051793;28;20482;-47
2022/03/21 03:36:15;;;;;;;5.00;4.53;;;9.90;85.60;;;;;;5051611;28;20438;-49
2022/03/21 03:38:43;;;;;;;6.63;5.50;;;9.80;85.60;;;;;;5052125;28;20532;-48
2022/03/21 03:41:11;;;;;;;5.63;5.10;;;9.80;85.50;;;;;;5067930;28;20434;-47
2022/03/21 03:43:39;;;;;;;5.93;4.97;;;9.80;85.50;;;;;;5052053;28;21007;-49
2022/03/21 03:46:07;;;;;;;6.07;5.40;;;9.80;85.50;;;;;;5061222;28;20433;-48
2022/03/21 03:48:38;;;;;;;5.30;4.60;;;9.80;85.40;;;;;;5052755;28;20462;-48
2022/03/21 03:51:06;;;;;;;4.13;3.73;;;9.80;85.50;;;;;;5052051;28;20435;-51
2022/03/21 03:53:35;;;;;;;6.67;5.30;;;9.80;85.60;;;;;;5071359;28;20989;-46
2022/03/21 03:56:04;;;;;;;5.80;4.80;;;9.80;85.70;;;;;;5058514;28;20916;-48
2022/03/21 03:58:32;;;;;;;7.40;5.40;;;9.80;85.70;;;;;;5070261;28;20458;-51
2022/03/21 04:01:00;;;;;;;7.80;5.53;;;9.80;85.60;;;;;;5063648;28;20435;-50
2022/03/21 04:03:47;;;;;;;6.00;5.40;;;9.80;85.60;;;;;;5061044;28;20466;-48
2022/03/21 04:06:21;;;;;;;4.83;4.43;;;9.80;85.60;;;;;;5065873;28;20433;-48
2022/03/21 04:08:51;;;;;;;5.60;5.00;;;9.80;85.70;;;;;;5071446;28;20534;-47
2022/03/21 04:11:20;;;;;;;6.07;4.83;;;9.80;85.60;;;;;;5070533;28;20434;-49
2022/03/21 04:13:48;;;;;;;6.03;5.00;;;9.80;85.70;;;;;;5050320;28;20502;-47
2022/03/21 04:16:17;;;;;;;4.90;4.30;;;9.80;85.50;;;;;;5069922;28;20477;-50
2022/03/21 04:18:46;;;;;;;4.67;4.10;;;9.80;85.50;;;;;;5054214;28;20986;-48
2022/03/21 04:21:31;;;;;;;5.40;4.77;;;9.80;85.50;;;;;;5053860;28;20468;-47
2022/03/21 04:24:00;;;;;;;5.90;5.13;;;9.80;85.40;;;;;;5069884;28;20474;-49
2022/03/21 04:26:28;;;;;;;6.97;4.15;;;9.80;85.50;;;;;;5053682;28;20456;-48
2022/03/21 04:28:56;;;;;;;4.40;4.00;;;9.80;85.50;;;;;;5062340;28;20227;-47
2022/03/21 04:31:24;;;;;;;5.87;4.87;;;9.80;85.60;;;;;;5068220;28;20499;-46
2022/03/21 04:33:53;;;;;;;4.60;4.20;;;9.80;85.70;;;;;;5070595;28;20473;-49
2022/03/21 04:36:21;;;;;;;5.80;4.60;;;9.80;85.70;;;;;;5053241;28;20443;-47
2022/03/21 04:38:53;;;;;;;5.47;4.90;;;9.80;85.70;;;;;;5070415;28;20829;-47
2022/03/21 04:41:21;;;;;;;5.77;4.37;;;9.80;85.60;;;;;;5053429;28;20446;-48
2022/03/21 04:43:50;;;;;;;4.27;3.87;;;9.80;85.50;;;;;;5050241;28;20476;-48
2022/03/21 04:46:19;;;;;;;5.40;4.37;;;9.80;85.50;;;;;;5055188;28;20434;-47
2022/03/21 04:48:47;;;;;;;5.47;4.90;;;9.80;85.50;;;;;;5070279;28;21003;-46
2022/03/21 04:51:15;;;;;;;5.13;4.63;;;9.80;85.50;;;;;;5062558;28;20424;-47
2022/03/21 04:53:43;;;;;;;4.27;3.87;;;9.80;85.60;;;;;;5069656;28;20538;-46
2022/03/21 04:56:13;;;;;;;5.13;4.63;;;9.80;85.60;;;;;;5054308;28;20461;-47
2022/03/21 04:58:41;;;;;;;5.20;4.70;;;9.80;85.50;;;;;;5049580;28;20462;-47
2022/03/21 05:01:09;;;;;;;6.17;5.17;;;9.70;85.40;;;;;;5062349;28;20849;-49
2022/03/21 05:03:38;;;;;;;4.80;3.83;;;9.80;85.50;;;;;;5049504;28;20788;-49
2022/03/21 05:06:07;;;;;;;5.97;5.00;;;9.80;85.60;;;;;;5065429;28;20430;-48
2022/03/21 05:08:35;;;;;;;4.63;4.20;;;9.70;85.40;;;;;;5054698;28;20459;-46
2022/03/21 05:11:03;;;;;;;4.80;4.23;;;9.70;85.40;;;;;;5065245;28;20488;-48
2022/03/21 05:13:33;;;;;;;5.10;4.60;;;9.70;85.40;;;;;;5065440;28;20471;-49
2022/03/21 05:16:01;;;;;;;4.93;4.27;;;9.70;85.40;;;;;;5055910;28;20449;-46
2022/03/21 05:18:30;;;;;;;5.37;4.83;;;9.70;85.50;;;;;;5051635;28;20561;-47
2022/03/21 05:20:59;;;;;;;5.33;4.30;;;9.70;85.60;;;;;;5050206;28;20462;-47
2022/03/21 05:31:47;;;;;;;4.60;4.20;;;9.70;85.50;;;;;;5057567;28;20815;-48
2022/03/21 05:37:05;;;;;;;6.20;4.63;;;9.70;85.60;;;;;;5057309;28;20950;-47
2022/03/21 05:39:34;;;;;;;5.07;4.57;;;9.70;85.60;;;;;;5066780;28;20506;-46
2022/03/21 05:42:02;;;;;;;5.47;3.70;;;9.70;85.60;;;;;;5053711;28;20442;-46
2022/03/21 05:44:32;;;;;;;4.57;4.03;;;9.70;85.50;;;;;;5060199;28;20475;-46
2022/03/21 05:47:00;;;;;;;6.07;4.40;;;9.70;85.60;;;;;;5055228;28;20815;-48
2022/03/21 05:49:27;;;;;;;5.80;4.30;;;9.70;85.60;;;;;;5049448;28;20857;-47
2022/03/21 05:51:55;;;;;;;4.60;4.10;;;9.70;85.60;;;;;;5055114;28;20448;-48
2022/03/21 05:54:24;;;;;;;4.87;4.00;;;9.70;85.60;;;;;;5068544;28;20475;-49
2022/03/21 05:56:52;;;;;;;4.93;4.03;;;9.70;85.60;;;;;;5050960;28;20434;-48
2022/03/21 06:02:08;;;;;;;6.67;5.00;;;9.70;85.60;;;;;;5060711;28;20510;-48
2022/03/21 06:04:36;;;;;;;4.40;4.00;;;9.70;85.60;;;;;;5049466;28;20869;-47
2022/03/21 06:07:23;;;;;;;5.07;4.50;;;9.70;85.60;;;;;;5060802;28;20979;-46
2022/03/21 06:09:53;;;;;;;4.27;3.87;;;9.70;85.50;;;;;;5070446;28;20422;-48
2022/03/21 06:12:22;;;;;;;5.63;4.30;;;9.70;85.60;;;;;;5069171;28;20867;-49
2022/03/21 06:14:50;;;;;;;4.40;4.00;;;9.70;85.60;;;;;;5068157;28;20470;-48
2022/03/21 06:17:20;;;;;;;4.70;4.00;;;9.70;85.60;;;;;;5073080;28;20433;-46
2022/03/21 06:19:48;;;;;;;4.70;3.90;;;9.60;85.60;;;;;;5073683;28;20429;-47
2022/03/21 06:22:16;;;;;;;5.80;4.60;;;9.60;85.60;;;;;;5066445;28;20875;-47
2022/03/21 06:24:47;;;;;;;4.90;4.07;;;9.60;85.60;;;;;;5053753;28;20523;-46
2022/03/21 06:27:15;;;;;;;5.10;4.60;;;9.60;85.60;;;;;;5053620;28;20488;-49
2022/03/21 06:29:43;;;;;;;4.70;4.23;;;9.60;85.70;;;;;;5053293;28;20476;-47
2022/03/21 06:32:11;;;;;;;4.27;3.87;;;9.60;85.70;;;;;;5068461;28;21191;-48
2022/03/21 06:34:41;;;;;;;4.53;4.10;;;9.60;85.70;;;;;;5072018;28;20460;-48
2022/03/21 06:37:10;;;;;;;5.23;4.70;;;9.60;85.70;;;;;;5069253;28;20541;-48
2022/03/21 06:39:38;;;;;;;6.23;4.23;;;9.60;85.70;;;;;;5073054;28;20468;-47
2022/03/21 06:42:06;;;;;;;6.70;4.87;;;9.60;85.70;;;;;;5056190;28;20570;-48
2022/03/21 06:44:35;;;;;;;5.37;4.87;;;9.60;85.70;;;;;;5051609;28;20516;-46
2022/03/21 06:47:03;;;;;;;6.77;5.10;;;9.60;85.70;;;;;;5061399;28;20453;-46
2022/03/21 06:49:31;;;;;;;7.50;5.17;;;9.60;85.80;;;;;;5069973;28;20464;-48
2022/03/21 06:52:06;;;;;;;5.13;4.63;;;9.60;85.80;;;;;;5059304;28;20918;-46
2022/03/21 06:54:34;;;;;;;4.60;4.20;;;9.60;85.90;;;;;;5071929;28;20505;-49
2022/03/21 06:57:03;;;;;;;5.63;5.10;;;9.60;85.90;;;;;;5072868;28;20438;-47
2022/03/21 06:59:34;;;;;;;4.30;3.90;;;9.60;86.00;;;;;;5070815;28;20462;-47
2022/03/21 07:02:03;;;;;;;4.37;3.93;;;9.60;86.00;;;;;;5052889;28;20504;-49
2022/03/21 07:04:50;;;;;;;4.90;4.50;;;9.60;86.10;;;;;;5052557;28;21262;-47
2022/03/21 07:07:21;;;;;;;5.97;4.00;;;9.60;85.90;;;;;;5061549;28;20523;-47
2022/03/21 07:09:49;;;;;;;5.17;4.60;;;9.60;86.00;;;;;;5055256;28;20909;-49
2022/03/21 07:12:18;;;;;;;4.63;4.00;;;9.60;86.10;;;;;;5052111;28;20635;-48
2022/03/21 07:14:48;;;;;;;6.30;5.00;;;9.60;86.00;;;;;;5058319;28;20430;-47
2022/03/21 07:17:19;;;;;;;8.20;4.80;;;9.60;86.20;;;;;;5064447;28;20439;-48
2022/03/21 07:19:47;;;;;;;4.70;4.10;;;9.60;86.30;;;;;;5052657;28;20476;-49
2022/03/21 07:22:16;;;;;;;4.77;4.30;;;9.60;86.00;;;;;;5061392;28;20488;-47
2022/03/21 07:24:45;;;;;;;5.40;4.90;;;9.60;86.10;;;;;;5070503;28;20519;-48
2022/03/21 07:27:14;;;;;;;5.50;4.10;;;9.70;86.30;;;;;;5063085;28;20491;-48
2022/03/21 07:29:42;;;;;;;4.90;4.40;;;9.60;85.90;;;;;;5072352;28;20446;-48
2022/03/21 07:32:10;;;;;;;4.50;4.00;;;9.60;85.90;;;;;;5049622;28;20445;-49
2022/03/21 07:34:38;;;;;;;5.27;3.43;;;9.70;85.80;;;;;;5064014;28;20546;-47
2022/03/21 07:37:06;;;;;;;3.50;3.20;;;9.70;85.70;;;;;;5060159;28;20529;-47
2022/03/21 07:39:36;;;;;;;5.50;3.93;;;9.70;85.60;;;;;;5071136;28;20480;-47
2022/03/21 07:42:07;;;;;;;4.17;3.83;;;9.70;85.50;;;;;;5072750;28;20466;-49
2022/03/21 07:47:21;;;;;;;4.03;3.63;;;9.70;85.50;;;;;;5070724;28;20526;-47
2022/03/21 07:49:52;;;;;;;4.80;3.67;;;9.70;85.30;;;;;;5056103;28;20203;-49
2022/03/21 07:52:21;;;;;;;5.30;3.43;;;9.70;85.40;;;;;;5061472;28;20465;-49
2022/03/21 07:54:53;;;;;;;3.70;3.40;;;9.70;85.30;;;;;;5056116;28;20445;-47
2022/03/21 07:57:26;;;;;;;3.70;3.40;;;9.70;85.30;;;;;;5052209;28;20429;-52
2022/03/21 08:00:15;;;;;;;3.60;3.30;;;9.70;85.40;;;;;;5057487;28;20987;-47
2022/03/21 08:03:03;;;;;;;3.20;2.90;;;9.70;85.30;;;;;;5071792;28;20576;-47
2022/03/21 08:05:50;;;;;;;3.60;2.97;;;9.70;85.40;;;;;;5051531;28;20532;-46
2022/03/21 08:08:37;;;;;;;3.53;3.17;;;9.70;85.30;;;;;;5058560;28;20609;-47
2022/03/21 08:11:24;;;;;;;3.33;3.03;;;9.70;85.20;;;;;;5054760;28;20441;-49
2022/03/21 08:14:12;;;;;;;3.57;3.10;;;9.70;85.30;;;;;;5051300;28;20468;-48
2022/03/21 08:16:59;;;;;;;4.30;3.90;;;9.70;85.30;;;;;;5063475;28;20437;-47
2022/03/21 08:19:46;;;;;;;4.10;3.60;;;9.70;85.40;;;;;;5071222;28;20449;-49
2022/03/21 08:22:33;;;;;;;4.20;3.80;;;9.70;85.50;;;;;;5070642;28;20481;-46
2022/03/21 08:25:21;;;;;;;5.03;4.53;;;9.70;86.00;;;;;;5071813;28;20785;-47
2022/03/21 08:28:09;;;;;;;5.60;4.60;;;9.80;86.40;;;;;;5071512;28;20825;-46
2022/03/21 08:30:57;;;;;;;4.50;4.10;;;9.80;86.70;;;;;;5070895;28;20437;-46
2022/03/21 08:33:25;;;;;;;6.17;4.87;;;9.80;86.70;;;;;;5070721;28;20562;-47
2022/03/21 08:35:53;;;;;;;5.30;4.47;;;9.80;86.80;;;;;;5070791;28;20470;-49
2022/03/21 08:38:28;;;;;;;4.87;4.47;;;9.80;86.80;;;;;;5057185;28;20459;-48
2022/03/21 08:40:58;;;;;;;5.50;4.97;;;9.80;86.70;;;;;;5050942;28;20477;-48
2022/03/21 08:43:27;;;;;;;5.75;5.13;;;9.80;86.70;;;;;;5050526;28;20469;-49
2022/03/21 08:45:56;;;;;;;5.60;4.70;;;9.80;86.80;;;;;;5056129;28;20196;-49
2022/03/21 08:51:08;;;;;;;6.27;4.70;;;9.80;86.60;;;;;;5051726;28;20461;-47
2022/03/21 08:53:36;;;;;;;5.43;4.93;;;9.80;86.60;;;;;;5070341;28;20535;-48
2022/03/21 08:56:05;;;;;;;5.37;4.87;;;9.80;86.60;;;;;;5052464;28;20467;-47
2022/03/21 08:58:33;;;;;;;6.20;5.60;;;9.80;86.60;;;;;;5050282;28;20470;-48
2022/03/21 09:01:03;;;;;;;5.30;4.80;;;9.80;86.50;;;;;;5066059;28;20215;-49
2022/03/21 09:03:32;;;;;;;6.13;4.60;;;9.80;86.70;;;;;;5070148;28;20560;-47
2022/03/21 09:06:01;;;;;;;6.90;5.30;;;9.80;86.70;;;;;;5069775;28;20465;-48
2022/03/21 09:08:29;;;;;;;5.77;5.00;;;9.80;86.80;;;;;;5068336;28;20561;-47
2022/03/21 09:10:57;;;;;;;7.30;5.53;;;9.80;86.80;;;;;;5056895;28;20427;-46
2022/03/21 09:13:25;;;;;;;6.10;5.30;;;9.80;86.90;;;;;;5058996;28;20466;-46
2022/03/21 09:15:53;;;;;;;5.60;5.10;;;9.80;86.80;;;;;;5065395;28;20836;-47
2022/03/21 09:18:23;;;;;;;8.60;5.40;;;9.90;86.90;;;;;;5069713;28;20802;-48
2022/03/21 09:20:51;;;;;;;8.20;5.50;;;9.90;86.90;;;;;;5070772;28;20426;-46
2022/03/21 09:23:24;;;;;;;6.00;4.90;;;9.90;87.10;;;;;;5056727;28;20466;-49
2022/03/21 09:26:10;;;;;;;6.83;5.33;;;9.90;87.00;;;;;;5050562;28;20415;-48
2022/03/21 09:29:03;;;;;;;7.27;5.70;;;9.90;86.90;;;;;;5056072;28;20493;-46
2022/03/21 09:31:31;;;;;;;7.20;5.93;;;9.90;87.10;;;;;;5064828;28;20525;-47
2022/03/21 09:34:08;;;;;;;6.50;5.80;;;9.90;87.10;;;;;;5068339;28;20481;-49
2022/03/21 09:36:37;;;;;;;6.83;5.30;;;9.90;87.10;;;;;;5053912;28;20485;-49
2022/03/21 09:39:06;;;;;;;5.57;5.00;;;9.90;87.00;;;;;;5069695;28;20465;-48
2022/03/21 09:41:35;;;;;;;6.13;5.17;;;9.90;87.00;;;;;;5050638;28;20949;-50
2022/03/21 09:44:07;;;;;;;8.90;5.03;;;9.90;87.00;;;;;;5065192;28;20527;-47
2022/03/21 09:46:36;;;;;;;8.90;5.27;;;9.90;87.20;;;;;;5070073;28;20864;-46
2022/03/21 09:49:04;;;;;;;4.97;4.53;;;9.90;87.10;;;;;;5072283;28;20560;-47
2022/03/21 09:51:34;;;;;;;5.60;5.10;;;9.90;87.20;;;;;;5073315;28;20471;-46
2022/03/21 09:54:03;;;;;;;5.23;4.70;;;9.90;87.20;;;;;;5073612;28;21032;-48
2022/03/21 09:56:32;;;;;;;8.43;4.87;;;9.90;87.10;;;;;;5073674;28;20458;-47
2022/03/21 09:59:00;;;;;;;5.57;5.00;;;9.90;87.30;;;;;;5073936;28;21057;-48
2022/03/21 10:01:29;;;;;;;6.80;5.03;;;9.90;87.40;;;;;;5072224;28;20449;-48
2022/03/21 10:03:58;;;;;;;5.03;4.57;;;9.90;87.40;;;;;;5073437;28;20453;-48
2022/03/21 10:06:32;;;;;;;9.50;5.97;;;9.90;87.50;;;;;;5072366;28;20470;-46
2022/03/21 10:09:13;;;;;;;8.83;7.90;;;9.90;88.80;;;;;;5072801;28;20462;-47
2022/03/21 10:11:51;;;;;;;13.10;10.00;;;10.00;88.00;;;;;;5056257;28;20489;-48
2022/03/21 10:14:27;;;;;;;14.03;11.73;;;10.10;90.00;;;;;;5054520;28;20453;-48
2022/03/21 10:16:58;;;;;;;17.90;11.43;;;10.20;90.70;;;;;;5066226;28;20437;-47
2022/03/21 10:19:27;;;;;;;15.07;12.73;;;10.30;91.90;;;;;;5064333;28;20462;-46
2022/03/21 10:22:09;;;;;;;19.53;13.27;;;10.40;92.40;;;;;;5059769;28;20468;-48
2022/03/21 10:24:40;;;;;;;14.40;12.83;;;10.40;92.70;;;;;;5073017;28;20887;-48
2022/03/21 10:27:30;;;;;;;17.43;14.70;;;10.50;93.10;;;;;;5073688;28;20449;-48
2022/03/21 10:30:02;;;;;;;19.57;14.50;;;10.50;93.20;;;;;;5062688;28;20766;-47
2022/03/21 10:32:32;;;;;;;16.97;14.47;;;10.60;93.70;;;;;;5059900;28;20873;-46
2022/03/21 10:35:06;;;;;;;17.60;13.33;;;10.60;94.20;;;;;;5072140;28;20495;-47
2022/03/21 10:37:42;;;;;;;18.43;13.93;;;10.60;94.50;;;;;;5063459;28;20441;-47
2022/03/21 10:40:33;;;;;;;23.90;15.50;;;10.60;94.80;;;;;;5073211;28;20417;-47
2022/03/21 10:43:05;;;;;;;21.10;15.40;;;10.70;95.40;;;;;;5059522;28;20471;-47
2022/03/21 10:45:46;;;;;;;18.20;16.00;;;10.70;95.80;;;;;;5055851;28;20962;-47
2022/03/21 10:48:16;;;;;;;17.70;15.53;;;10.80;96.40;;;;;;5065886;28;20556;-48
2022/03/21 10:50:46;;;;;;;19.03;14.67;;;10.70;96.30;;;;;;5072241;28;20445;-48
2022/03/21 10:53:16;;;;;;;22.23;15.50;;;10.80;96.50;;;;;;5072232;28;20468;-47
2022/03/21 10:55:49;;;;;;;28.30;16.30;;;10.80;96.70;;;;;;5072990;28;20441;-47
2022/03/21 10:58:18;;;;;;;21.73;15.40;;;10.80;96.90;;;;;;5072489;28;20901;-47
2022/03/21 11:00:49;;;;;;;21.47;15.90;;;10.80;96.80;;;;;;5070868;28;20527;-48
2022/03/21 11:03:18;;;;;;;20.27;14.90;;;10.80;96.90;;;;;;5072454;28;20557;-46
2022/03/21 11:05:49;;;;;;;21.30;15.27;;;10.80;96.60;;;;;;5071898;28;20434;-48
2022/03/21 11:08:19;;;;;;;16.97;14.10;;;10.90;96.90;;;;;;5071836;28;20545;-46
2022/03/21 11:10:49;;;;;;;17.03;14.37;;;10.90;97.00;;;;;;5055283;28;20439;-48
2022/03/21 11:13:20;;;;;;;21.73;15.00;;;10.90;97.10;;;;;;5051716;28;20475;-46
2022/03/21 11:15:48;;;;;;;16.40;14.33;;;10.90;97.30;;;;;;5065384;28;20533;-49
2022/03/21 11:18:20;;;;;;;18.10;15.23;;;10.90;97.40;;;;;;5072651;28;20462;-48
2022/03/21 11:20:49;;;;;;;20.50;14.47;;;10.90;96.90;;;;;;5072488;28;20483;-48
2022/03/21 11:23:18;;;;;;;16.87;14.43;;;10.80;96.40;;;;;;5070469;28;20466;-49
2022/03/21 11:25:52;;;;;;;16.17;14.00;;;10.80;96.40;;;;;;5072414;28;20426;-50
2022/03/21 11:28:51;;;;;;;16.60;13.47;;;10.80;96.30;;;;;;5051961;28;20471;-48
2022/03/21 11:31:53;;;;;;;17.80;13.30;;;10.70;96.30;;;;;;5052653;28;20845;-47
2022/03/21 11:34:31;;;;;;;17.30;14.13;;;10.60;96.20;;;;;;5051528;28;20574;-48
2022/03/21 11:37:00;;;;;;;15.17;11.93;;;10.60;96.10;;;;;;5058221;28;20442;-46
2022/03/21 11:39:30;;;;;;;15.93;12.43;;;10.60;96.10;;;;;;5070027;28;20450;-47
2022/03/21 11:42:06;;;;;;;14.87;11.73;;;10.50;96.00;;;;;;5051930;28;20465;-47
2022/03/21 11:44:34;;;;;;;15.27;11.63;;;10.50;96.00;;;;;;5050000;28;20462;-46
2022/03/21 11:47:23;;;;;;;16.57;13.50;;;10.50;96.70;;;;;;5058753;28;20474;-47
2022/03/21 11:49:52;;;;;;;17.93;13.63;;;10.50;97.20;;;;;;5054579;28;20492;-46
2022/03/21 11:52:21;;;;;;;18.97;14.30;;;10.60;97.80;;;;;;5072483;28;21042;-47
2022/03/21 11:54:49;;;;;;;20.23;14.80;;;10.70;98.40;;;;;;5054075;28;20465;-46
2022/03/21 11:57:31;;;;;;;18.10;14.40;;;10.80;99.20;;;;;;5072704;28;20438;-47
2022/03/21 12:00:14;;;;;;;15.77;12.60;;;10.90;99.30;;;;;;5053496;28;20453;-45
2022/03/21 12:02:57;;;;;;;16.83;14.13;;;10.90;99.20;;;;;;5053437;28;20546;-48
2022/03/21 12:05:51;;;;;;;19.23;15.30;;;11.00;98.90;;;;;;5053345;28;20573;-48
2022/03/21 12:08:52;;;;;;;14.87;12.47;;;11.10;98.70;;;;;;5070123;28;20461;-47
2022/03/21 12:12:03;;;;;;;14.03;12.57;;;11.10;98.70;;;;;;5063433;28;20474;-47
2022/03/21 12:14:40;;;;;;;19.00;12.60;;;11.10;98.70;;;;;;5068046;28;20471;-48
2022/03/21 12:17:28;;;;;;;19.17;12.60;;;11.10;98.80;;;;;;5087865;28;20434;-48
2022/03/21 12:20:11;;;;;;;18.03;12.87;;;11.20;98.80;;;;;;5082046;28;20451;-50
2022/03/21 12:23:15;;;;;;;15.50;12.23;;;11.20;98.80;;;;;;5080543;28;20474;-47
2022/03/21 12:25:49;;;;;;;16.30;12.10;;;11.20;99.00;;;;;;5086790;28;20437;-48
2022/03/21 12:29:31;;;;;;;18.10;11.10;;;11.20;99.10;;;;;;5087487;28;20468;-48
2022/03/21 12:31:26;;;;;;;11.70;10.30;;;11.30;98.80;;;;;;5080652;28;20470;-49
2022/03/21 12:34:44;;;;;;;16.13;10.70;;;11.30;98.60;;;;;;5052806;28;20506;-48
2022/03/21 12:37:40;;;;;;;10.87;8.90;;;11.30;98.10;;;;;;5073918;28;20454;-47
2022/03/21 12:40:13;;;;;;;11.10;9.03;;;11.30;97.90;;;;;;5062504;28;20459;-48
2022/03/21 12:42:46;;;;;;;9.23;8.33;;;11.30;97.50;;;;;;5051936;28;20458;-47
2022/03/21 12:45:19;;;;;;;12.47;8.93;;;11.30;97.20;;;;;;5055860;28;20458;-48
2022/03/21 12:47:49;;;;;;;10.03;8.27;;;11.30;97.10;;;;;;5071777;28;20972;-49
2022/03/21 12:50:22;;;;;;;11.93;8.53;;;11.30;97.50;;;;;;5059540;28;20463;-48
2022/03/21 12:52:56;;;;;;;12.90;8.57;;;11.30;96.90;;;;;;5045698;28;20546;-47
2022/03/21 12:55:25;;;;;;;11.53;8.63;;;11.30;96.90;;;;;;5058336;28;20466;-47
2022/03/21 12:57:55;;;;;;;8.83;7.93;;;11.30;96.90;;;;;;5049884;28;20467;-47
2022/03/21 13:00:27;;;;;;;12.17;8.50;;;11.30;97.00;;;;;;5050632;28;20474;-46
2022/03/21 13:02:56;;;;;;;9.43;8.50;;;11.30;97.10;;;;;;5068606;28;20477;-49
2022/03/21 13:11:03;;;;;;;9.87;8.53;;;11.40;96.90;;;;;;5053202;28;20425;-48
2022/03/21 13:13:41;;;;;;;11.93;9.07;;;11.40;96.90;;;;;;5064679;28;21089;-48
2022/03/21 13:16:09;;;;;;;8.23;7.27;;;11.40;96.90;;;;;;5064323;28;20847;-48
2022/03/21 13:18:40;;;;;;;9.17;8.27;;;11.40;97.20;;;;;;5051866;28;20509;-49
2022/03/21 13:21:09;;;;;;;13.37;9.53;;;11.40;97.50;;;;;;5054178;28;20430;-48
2022/03/21 13:23:38;;;;;;;8.33;7.40;;;11.40;97.30;;;;;;5069190;28;20465;-48
2022/03/21 13:26:12;;;;;;;10.80;8.57;;;11.40;96.90;;;;;;5070335;28;20414;-46
2022/03/21 13:28:41;;;;;;;13.13;8.13;;;11.30;96.80;;;;;;5070210;28;20466;-47
2022/03/21 13:31:15;;;;;;;9.63;7.80;;;11.30;96.80;;;;;;5069321;28;20441;-47
2022/03/21 13:33:52;;;;;;;9.80;8.07;;;11.20;96.70;;;;;;5069884;28;20552;-47
2022/03/21 13:36:23;;;;;;;9.60;8.37;;;11.20;96.90;;;;;;5069102;28;20457;-48
2022/03/21 13:39:08;;;;;;;9.30;7.27;;;11.10;96.90;;;;;;5070016;28;20953;-45
2022/03/21 13:41:52;;;;;;;8.80;7.20;;;11.10;96.90;;;;;;5070496;28;20781;-49
2022/03/21 13:44:20;;;;;;;8.17;7.07;;;11.00;97.00;;;;;;5068401;28;21008;-50